createdAt,value
2022-10-14T00:01:27.866Z,4.20
2022-10-14T00:03:56.284Z,4.43
2022-10-14T00:06:27.717Z,4.73
2022-10-14T00:08:57.097Z,6.03
2022-10-14T00:11:29.249Z,5.83
2022-10-14T00:14:02.884Z,5.20
2022-10-14T00:16:34.412Z,4.57
2022-10-14T00:19:03.408Z,3.97
2022-10-14T00:21:33.227Z,3.57
2022-10-14T00:24:01.622Z,3.67
2022-10-14T00:26:33.720Z,3.60
2022-10-14T00:29:06.624Z,3.17
2022-10-14T00:31:36.295Z,3.03
2022-10-14T00:34:05.097Z,3.23
2022-10-14T00:36:34.792Z,2.93
2022-10-14T00:39:03.201Z,3.13
2022-10-14T00:41:36.172Z,2.90
2022-10-14T00:44:08.212Z,2.67
2022-10-14T00:46:39.521Z,2.67
2022-10-14T00:49:13.641Z,2.93
2022-10-14T00:51:46.373Z,2.90
2022-10-14T00:54:18.656Z,2.60
2022-10-14T00:56:50.139Z,2.80
2022-10-14T00:59:20.984Z,3.07
2022-10-14T01:01:49.611Z,3.00
2022-10-14T01:04:18.066Z,2.90
2022-10-14T01:07:05.719Z,3.00
2022-10-14T01:09:42.828Z,2.57
2022-10-14T01:12:29.179Z,2.93
2022-10-14T01:15:14.825Z,3.00
2022-10-14T01:17:52.051Z,2.80
2022-10-14T01:21:02.451Z,2.80
2022-10-14T01:24:22.972Z,3.00
2022-10-14T01:27:15.087Z,2.70
2022-10-14T01:30:09.005Z,2.87
2022-10-14T01:32:52.955Z,2.70
2022-10-14T01:35:34.589Z,3.03
2022-10-14T01:38:11.457Z,3.27
2022-10-14T01:40:49.960Z,2.63
2022-10-14T01:43:24.007Z,3.00
2022-10-14T01:45:56.795Z,3.40
2022-10-14T01:48:33.945Z,2.83
2022-10-14T01:51:08.745Z,2.60
2022-10-14T01:53:43.380Z,2.93
2022-10-14T01:56:15.236Z,2.50
2022-10-14T01:58:46.327Z,2.63
2022-10-14T02:01:17.007Z,2.80
2022-10-14T02:03:49.175Z,3.10
2022-10-14T02:06:26.184Z,2.70
2022-10-14T02:09:14.333Z,2.43
2022-10-14T02:12:04.743Z,3.13
2022-10-14T02:14:45.147Z,3.23
2022-10-14T02:17:23.150Z,2.20
2022-10-14T02:19:56.764Z,2.80
2022-10-14T02:22:34.881Z,2.50
2022-10-14T02:25:14.710Z,2.93
2022-10-14T02:27:47.576Z,2.40
2022-10-14T02:30:18.921Z,2.90
2022-10-14T02:32:53.826Z,3.20
2022-10-14T02:35:26.184Z,3.07
2022-10-14T02:37:59.416Z,2.87
2022-10-14T02:40:34.455Z,2.40
2022-10-14T02:43:03.484Z,2.87
2022-10-14T02:45:34.905Z,2.90
2022-10-14T02:48:06.168Z,2.90
2022-10-14T02:50:34.909Z,3.10
2022-10-14T02:53:03.981Z,2.93
2022-10-14T02:55:32.307Z,2.80
2022-10-14T02:58:01.618Z,2.87
2022-10-14T03:00:30.005Z,2.90
2022-10-14T03:02:59.032Z,2.83
2022-10-14T03:05:30.505Z,2.67
2022-10-14T03:07:59.053Z,2.43
2022-10-14T03:10:29.461Z,2.43
2022-10-14T03:12:59.008Z,2.63
2022-10-14T03:15:32.540Z,2.93
2022-10-14T03:18:01.478Z,2.67
2022-10-14T03:20:41.037Z,3.00
2022-10-14T03:23:10.207Z,2.80
2022-10-14T03:25:39.860Z,2.63
2022-10-14T03:28:17.579Z,2.93
2022-10-14T03:30:54.185Z,2.40
2022-10-14T03:33:43.484Z,2.60
2022-10-14T03:36:15.882Z,3.20
2022-10-14T03:38:55.031Z,3.10
2022-10-14T03:41:44.817Z,3.03
2022-10-14T03:44:16.555Z,3.10
2022-10-14T03:47:02.216Z,2.57
2022-10-14T03:49:33.212Z,3.53
2022-10-14T03:52:09.020Z,2.77
2022-10-14T03:54:38.593Z,3.07
2022-10-14T03:57:07.192Z,3.07
2022-10-14T03:59:43.616Z,3.10
2022-10-14T04:02:12.377Z,3.10
2022-10-14T04:04:42.854Z,3.40
2022-10-14T04:07:12.635Z,2.77
2022-10-14T04:09:42.235Z,3.20
2022-10-14T04:12:12.773Z,3.17
2022-10-14T04:15:00.146Z,3.00
2022-10-14T04:17:33.788Z,3.17
2022-10-14T04:20:10.681Z,2.80
2022-10-14T04:22:40.901Z,2.70
2022-10-14T04:25:10.794Z,3.03
2022-10-14T04:27:38.948Z,3.13
2022-10-14T04:30:12.150Z,3.13
2022-10-14T04:32:48.813Z,3.10
2022-10-14T04:35:17.604Z,3.00
2022-10-14T04:37:52.075Z,2.97
2022-10-14T04:40:25.779Z,3.87
2022-10-14T04:42:59.836Z,3.23
2022-10-14T04:45:36.896Z,4.30
2022-10-14T04:48:05.882Z,3.60
2022-10-14T04:50:39.454Z,2.93
2022-10-14T04:53:29.667Z,3.37
2022-10-14T04:56:07.984Z,3.57
2022-10-14T04:58:42.841Z,4.67
2022-10-14T05:01:11.083Z,3.10
2022-10-14T05:06:35.491Z,3.20
2022-10-14T05:09:05.697Z,3.33
2022-10-14T05:11:35.104Z,4.00
2022-10-14T05:14:03.570Z,5.27
2022-10-14T05:16:34.690Z,4.67
2022-10-14T05:19:04.642Z,4.53
2022-10-14T05:21:35.809Z,3.33
2022-10-14T05:24:13.209Z,3.37
2022-10-14T05:26:42.897Z,4.57
2022-10-14T05:29:13.877Z,4.73
2022-10-14T05:31:44.443Z,5.20
2022-10-14T05:34:23.064Z,4.27
2022-10-14T05:36:51.893Z,4.40
2022-10-14T05:39:23.807Z,7.10
2022-10-14T05:41:51.918Z,6.37
2022-10-14T05:44:24.900Z,9.63
2022-10-14T05:46:53.972Z,8.77
2022-10-14T05:49:22.874Z,7.23
2022-10-14T05:51:51.062Z,7.17
2022-10-14T05:54:24.935Z,8.07
2022-10-14T05:56:56.237Z,6.73
2022-10-14T05:59:26.203Z,6.37
2022-10-14T06:01:54.327Z,5.03
2022-10-14T06:04:23.971Z,5.97
2022-10-14T06:06:52.129Z,4.80
2022-10-14T06:09:21.269Z,3.90
2022-10-14T06:11:50.928Z,4.20
2022-10-14T06:14:19.608Z,4.50
2022-10-14T06:16:51.321Z,7.27
2022-10-14T06:19:20.405Z,4.90
2022-10-14T06:21:48.917Z,4.57
2022-10-14T06:24:17.650Z,5.20
2022-10-14T06:26:46.264Z,5.50
2022-10-14T06:29:16.167Z,6.00
2022-10-14T06:31:45.205Z,6.20
2022-10-14T06:34:13.918Z,6.27
2022-10-14T06:36:42.638Z,5.13
2022-10-14T06:39:11.615Z,6.47
2022-10-14T06:41:39.676Z,5.80
2022-10-14T06:44:21.967Z,5.90
2022-10-14T06:46:50.669Z,6.67
2022-10-14T06:49:19.074Z,6.70
2022-10-14T06:51:47.624Z,7.60
2022-10-14T06:54:15.796Z,7.80
2022-10-14T06:56:44.345Z,6.90
2022-10-14T06:59:13.418Z,7.37
2022-10-14T07:01:43.306Z,6.60
2022-10-14T07:04:11.510Z,5.63
2022-10-14T07:06:40.145Z,5.07
2022-10-14T07:09:08.617Z,5.23
2022-10-14T07:11:36.727Z,4.83
2022-10-14T07:14:05.178Z,3.83
2022-10-14T07:16:33.597Z,4.30
2022-10-14T07:19:03.558Z,3.20
2022-10-14T07:21:31.811Z,3.20
2022-10-14T07:24:00.702Z,4.00
2022-10-14T07:26:31.301Z,4.60
2022-10-14T07:28:59.793Z,3.50
2022-10-14T07:31:29.888Z,3.37
2022-10-14T07:33:58.790Z,3.97
2022-10-14T07:36:29.038Z,3.37
2022-10-14T07:38:57.896Z,3.43
2022-10-14T07:41:26.983Z,3.20
2022-10-14T07:44:01.932Z,3.57
2022-10-14T07:46:32.488Z,3.97
2022-10-14T07:49:06.367Z,3.70
2022-10-14T07:51:36.889Z,5.37
2022-10-14T07:54:09.774Z,4.30
2022-10-14T07:56:40.453Z,3.47
2022-10-14T07:59:08.859Z,2.77
2022-10-14T08:01:38.219Z,3.20
2022-10-14T08:04:06.586Z,3.97
2022-10-14T08:06:36.111Z,3.43
2022-10-14T08:09:06.873Z,4.30
2022-10-14T08:11:35.557Z,3.07
2022-10-14T08:14:04.569Z,4.97
2022-10-14T08:16:36.590Z,5.20
2022-10-14T08:19:13.811Z,5.53
2022-10-14T08:21:45.539Z,3.17
2022-10-14T08:24:13.658Z,3.20
2022-10-14T08:26:51.247Z,3.40
2022-10-14T08:29:20.032Z,3.30
2022-10-14T08:31:48.265Z,2.97
2022-10-14T08:34:16.768Z,3.10
2022-10-14T08:36:46.200Z,3.73
2022-10-14T08:39:14.636Z,3.43
2022-10-14T08:42:06.479Z,3.43
2022-10-14T08:44:46.221Z,3.70
2022-10-14T08:47:18.148Z,3.43
2022-10-14T08:50:01.510Z,4.07
2022-10-14T08:52:38.451Z,5.43
2022-10-14T08:55:24.513Z,4.03
2022-10-14T08:58:01.278Z,3.03
2022-10-14T09:00:32.011Z,3.03
2022-10-14T09:03:07.143Z,2.50
2022-10-14T09:05:35.488Z,2.60
2022-10-14T09:08:06.462Z,2.37
2022-10-14T09:10:42.144Z,1.40
2022-10-14T09:13:19.156Z,1.43
2022-10-14T09:15:53.971Z,1.60
2022-10-14T09:18:31.053Z,1.83
2022-10-14T09:21:00.768Z,2.03
2022-10-14T09:23:31.020Z,2.15
2022-10-14T09:26:04.291Z,2.28
2022-10-14T09:28:38.500Z,1.90
2022-10-14T09:31:12.042Z,1.80
2022-10-14T09:33:42.637Z,2.08
2022-10-14T09:36:18.484Z,1.92
2022-10-14T09:38:51.661Z,2.17
2022-10-14T09:41:27.949Z,2.20
2022-10-14T09:44:22.529Z,1.83
2022-10-14T09:46:57.751Z,2.10
2022-10-14T09:49:39.044Z,1.50
2022-10-14T09:52:08.411Z,1.75
2022-10-14T09:54:38.618Z,1.10
2022-10-14T09:57:09.744Z,1.60
2022-10-14T09:59:55.603Z,1.30
2022-10-14T10:02:34.004Z,1.45
2022-10-14T10:05:14.965Z,1.45
2022-10-14T10:07:43.125Z,1.00
2022-10-14T10:10:23.265Z,0.80
2022-10-14T10:12:51.586Z,0.90
2022-10-14T10:15:22.484Z,0.70
2022-10-14T10:17:51.748Z,0.88
2022-10-14T10:20:33.370Z,0.80
2022-10-14T10:23:26.181Z,0.60
2022-10-14T10:25:56.192Z,0.95
2022-10-14T10:28:31.064Z,1.30
2022-10-14T10:31:31.014Z,1.17
2022-10-14T10:34:14.204Z,1.00
2022-10-14T10:36:52.578Z,1.42
2022-10-14T10:39:38.126Z,1.25
2022-10-14T10:42:17.522Z,1.05
2022-10-14T10:45:07.401Z,3.25
2022-10-14T10:47:47.219Z,1.60
2022-10-14T10:50:29.929Z,2.05
2022-10-14T10:53:23.856Z,2.55
2022-10-14T10:56:11.975Z,1.77
2022-10-14T10:58:55.107Z,1.90
2022-10-14T11:01:37.053Z,1.33
2022-10-14T11:04:32.920Z,1.42
2022-10-14T11:07:38.281Z,1.42
2022-10-14T11:10:38.848Z,1.13
2022-10-14T11:13:16.896Z,1.30
2022-10-14T11:15:56.161Z,0.93
2022-10-14T11:18:45.687Z,0.95
2022-10-14T11:21:30.245Z,1.40
2022-10-14T11:24:13.948Z,1.20
2022-10-14T11:27:12.241Z,1.15
2022-10-14T11:30:15.157Z,1.73
2022-10-14T11:33:11.639Z,1.95
2022-10-14T11:35:56.693Z,1.70
2022-10-14T11:38:48.603Z,1.60
2022-10-14T11:41:34.326Z,1.98
2022-10-14T11:44:12.439Z,1.80
2022-10-14T11:46:48.888Z,1.50
2022-10-14T11:49:31.247Z,1.95
2022-10-14T11:52:07.778Z,1.60
2022-10-14T11:54:44.127Z,1.63
2022-10-14T11:57:23.821Z,1.60
2022-10-14T12:00:16.459Z,1.88
2022-10-14T12:02:56.666Z,2.10
2022-10-14T12:05:41.039Z,1.65
2022-10-14T12:08:22.304Z,1.70
2022-10-14T12:10:59.223Z,1.77
2022-10-14T12:13:37.459Z,1.70
2022-10-14T12:16:13.028Z,2.72
2022-10-14T12:18:43.782Z,2.17
2022-10-14T12:21:23.301Z,1.30
2022-10-14T12:23:55.396Z,1.30
2022-10-14T12:26:51.004Z,1.30
2022-10-14T12:29:23.864Z,1.45
2022-10-14T12:32:17.556Z,2.97
2022-10-14T12:34:47.899Z,1.27
2022-10-14T12:37:50.170Z,1.00
2022-10-14T12:40:31.500Z,2.20
2022-10-14T12:43:20.036Z,1.55
2022-10-14T12:46:04.773Z,1.17
2022-10-14T12:48:36.835Z,1.65
2022-10-14T12:51:14.686Z,3.55
2022-10-14T12:54:08.587Z,2.78
2022-10-14T12:56:44.144Z,2.10
2022-10-14T12:59:25.501Z,1.27
2022-10-14T13:02:00.241Z,1.52
2022-10-14T13:04:29.324Z,1.92
2022-10-14T13:07:48.849Z,1.73
2022-10-14T13:11:10.237Z,1.20
2022-10-14T13:13:54.764Z,10.27
2022-10-14T13:16:59.747Z,3.75
2022-10-14T13:19:50.100Z,3.72
2022-10-14T13:22:43.651Z,1.73
2022-10-14T13:25:21.801Z,1.45
2022-10-14T13:28:27.385Z,1.67
2022-10-14T13:31:06.312Z,2.58
2022-10-14T13:33:43.540Z,1.73
2022-10-14T13:36:19.929Z,1.83
2022-10-14T13:38:56.710Z,2.75
2022-10-14T13:41:31.412Z,1.30
2022-10-14T13:44:03.716Z,1.20
2022-10-14T13:46:40.302Z,1.45
2022-10-14T13:51:53.716Z,1.30
2022-10-14T13:54:26.554Z,2.00
2022-10-14T13:57:47.997Z,1.83
2022-10-14T14:00:41.411Z,3.67
2022-10-14T14:05:04.677Z,1.20
2022-10-14T14:08:21.714Z,0.90
2022-10-14T14:10:51.396Z,1.02
2022-10-14T14:13:59.003Z,1.50
2022-10-14T14:16:34.927Z,1.20
2022-10-14T14:19:34.204Z,1.40
2022-10-14T14:26:36.728Z,1.45
2022-10-14T14:29:07.741Z,2.22
2022-10-14T14:34:28.807Z,1.20
2022-10-14T14:37:10.962Z,1.27
2022-10-14T14:39:59.084Z,3.15
2022-10-14T14:42:31.706Z,2.75
2022-10-14T14:45:06.408Z,2.67
2022-10-14T14:47:36.128Z,2.08
2022-10-14T14:50:29.134Z,1.42
2022-10-14T14:53:56.984Z,1.10
2022-10-14T14:56:30.037Z,3.17
2022-10-14T14:59:06.583Z,4.43
2022-10-14T15:01:35.198Z,2.03
2022-10-14T15:04:13.308Z,1.50
2022-10-14T15:06:51.095Z,1.50
2022-10-14T15:09:30.897Z,1.20
2022-10-14T15:12:02.170Z,1.13
2022-10-14T15:14:35.557Z,1.23
2022-10-14T15:17:05.694Z,0.90
2022-10-14T15:19:39.108Z,1.17
2022-10-14T15:22:29.549Z,0.90
2022-10-14T15:25:08.070Z,1.20
2022-10-14T15:27:52.395Z,1.05
2022-10-14T15:30:35.265Z,0.88
2022-10-14T15:33:21.284Z,0.93
2022-10-14T15:36:01.686Z,1.00
2022-10-14T15:41:06.129Z,1.20
2022-10-14T15:43:35.464Z,1.20
2022-10-14T15:46:21.413Z,1.00
2022-10-14T15:48:53.281Z,0.50
2022-10-14T15:51:24.719Z,1.07
2022-10-14T15:54:13.922Z,1.23
2022-10-14T15:56:42.087Z,1.63
2022-10-14T15:59:10.328Z,3.30
2022-10-14T16:01:41.458Z,12.07
2022-10-14T16:04:22.399Z,2.92
2022-10-14T16:06:54.531Z,2.20
2022-10-14T16:09:24.065Z,1.17
2022-10-14T16:11:57.341Z,1.00
2022-10-14T16:14:27.330Z,1.63
2022-10-14T16:16:56.145Z,1.80
2022-10-14T16:19:24.655Z,1.37
2022-10-14T16:21:54.229Z,3.00
2022-10-14T16:24:25.303Z,1.70
2022-10-14T16:26:54.845Z,1.20
2022-10-14T16:29:23.614Z,1.60
2022-10-14T16:31:53.316Z,1.50
2022-10-14T16:34:24.111Z,1.90
2022-10-14T16:36:53.695Z,2.07
2022-10-14T16:39:22.708Z,4.37
2022-10-14T16:41:50.809Z,3.10
2022-10-14T16:44:28.286Z,1.60
2022-10-14T16:47:17.269Z,3.37
2022-10-14T16:49:48.185Z,2.87
2022-10-14T16:52:18.081Z,1.30
2022-10-14T16:54:46.589Z,2.50
2022-10-14T16:57:15.161Z,2.00
2022-10-14T16:59:43.474Z,2.10
2022-10-14T17:02:20.250Z,1.50
2022-10-14T17:04:49.778Z,1.70
2022-10-14T17:07:20.063Z,2.37
2022-10-14T17:09:48.570Z,2.20
2022-10-14T17:12:18.536Z,2.47
2022-10-14T17:14:47.267Z,2.33
2022-10-14T17:17:15.424Z,2.47
2022-10-14T17:19:44.718Z,1.00
2022-10-14T17:22:13.104Z,1.43
2022-10-14T17:24:43.044Z,1.03
2022-10-14T17:27:12.004Z,1.40
2022-10-14T17:29:40.256Z,0.77
2022-10-14T17:32:08.918Z,1.07
2022-10-14T17:34:37.120Z,2.00
2022-10-14T17:39:42.700Z,3.27
2022-10-14T17:42:10.999Z,3.73
2022-10-14T17:44:43.435Z,4.90
2022-10-14T17:47:13.008Z,6.40
2022-10-14T17:49:41.588Z,4.73
2022-10-14T17:52:09.736Z,3.93
2022-10-14T17:54:38.098Z,3.33
2022-10-14T17:57:07.534Z,1.87
2022-10-14T17:59:35.935Z,2.90
2022-10-14T18:02:05.445Z,2.03
2022-10-14T18:04:33.849Z,2.00
2022-10-14T18:07:02.470Z,2.00
2022-10-14T18:09:30.646Z,3.93
2022-10-14T18:12:13.990Z,3.93
2022-10-14T18:14:44.137Z,2.53
2022-10-14T18:17:13.595Z,4.80
2022-10-14T18:19:45.063Z,4.00
2022-10-14T18:22:17.011Z,2.40
2022-10-14T18:24:45.537Z,4.30
2022-10-14T18:27:14.010Z,4.03
2022-10-14T18:29:43.482Z,16.20
2022-10-14T18:32:12.327Z,10.30
2022-10-14T18:34:40.920Z,4.77
2022-10-14T18:37:09.147Z,14.97
2022-10-14T18:39:37.683Z,12.23
2022-10-14T18:42:06.531Z,11.70
2022-10-14T18:44:34.612Z,10.97
2022-10-14T18:47:04.413Z,12.30
2022-10-14T18:49:36.804Z,13.23
2022-10-14T18:52:08.674Z,22.30
2022-10-14T18:54:36.912Z,9.87
2022-10-14T18:57:05.231Z,5.33
2022-10-14T18:59:33.986Z,4.73
2022-10-14T19:02:03.920Z,4.63
2022-10-14T19:04:32.209Z,2.77
2022-10-14T19:07:00.693Z,2.70
2022-10-14T19:09:30.051Z,5.90
2022-10-14T19:11:59.838Z,7.17
2022-10-14T19:14:29.354Z,6.90
2022-10-14T19:16:57.575Z,4.63
2022-10-14T19:19:27.305Z,3.20
2022-10-14T19:21:56.441Z,2.33
2022-10-14T19:24:24.756Z,2.20
2022-10-14T19:26:54.185Z,2.13
2022-10-14T19:29:23.399Z,2.50
2022-10-14T19:31:54.293Z,2.43
2022-10-14T19:34:26.744Z,2.60
2022-10-14T19:36:56.864Z,2.60
2022-10-14T19:39:24.986Z,1.87
2022-10-14T19:41:53.102Z,3.13
2022-10-14T19:44:21.320Z,8.20
2022-10-14T19:46:49.477Z,8.80
2022-10-14T19:49:18.088Z,6.73
2022-10-14T19:51:46.205Z,7.93
2022-10-14T19:54:16.383Z,5.07
2022-10-14T19:56:44.834Z,4.37
2022-10-14T19:59:14.084Z,3.20
2022-10-14T20:01:43.219Z,2.80
2022-10-14T20:04:11.784Z,2.30
2022-10-14T20:06:40.580Z,1.87
2022-10-14T20:09:09.701Z,1.60
2022-10-14T20:11:39.386Z,1.60
2022-10-14T20:14:07.480Z,1.50
2022-10-14T20:16:35.789Z,1.83
2022-10-14T20:19:04.300Z,2.10
2022-10-14T20:21:32.456Z,6.77
2022-10-14T20:24:00.751Z,9.93
2022-10-14T20:26:29.472Z,9.50
2022-10-14T20:28:59.302Z,7.90
2022-10-14T20:31:27.444Z,8.53
2022-10-14T20:33:57.863Z,8.70
2022-10-14T20:36:26.086Z,7.00
2022-10-14T20:38:54.796Z,5.60
2022-10-14T20:46:23.264Z,6.77
2022-10-14T20:48:55.791Z,6.93
2022-10-14T20:51:24.650Z,6.07
2022-10-14T20:54:01.723Z,6.00
2022-10-14T20:56:34.173Z,5.20
2022-10-14T20:59:05.391Z,5.80
2022-10-14T21:01:37.353Z,6.83
2022-10-14T21:04:08.700Z,5.90
2022-10-14T21:06:39.151Z,5.07
2022-10-14T21:09:07.406Z,5.67
2022-10-14T21:11:35.527Z,6.20
2022-10-14T21:14:04.279Z,5.07
2022-10-14T21:16:36.707Z,2.40
2022-10-14T21:19:07.819Z,3.13
2022-10-14T21:21:38.971Z,3.27
2022-10-14T21:24:08.893Z,2.60
2022-10-14T21:26:37.071Z,1.80
2022-10-14T21:29:05.878Z,0.90
2022-10-14T21:31:35.212Z,0.50
2022-10-14T21:34:06.586Z,0.70
2022-10-14T21:36:35.845Z,0.30
2022-10-14T21:39:07.957Z,0.30
2022-10-14T21:41:37.158Z,0.30
2022-10-14T21:44:06.911Z,0.20
2022-10-14T21:46:37.602Z,0.40
2022-10-14T21:49:05.868Z,0.30
2022-10-14T21:51:34.011Z,0.00
2022-10-14T21:54:02.215Z,0.10
2022-10-14T21:56:31.172Z,0.20
2022-10-14T21:58:59.572Z,0.20
2022-10-14T22:01:30.180Z,0.30
2022-10-14T22:04:03.756Z,0.30
2022-10-14T22:06:33.274Z,0.10
2022-10-14T22:09:04.547Z,0.40
2022-10-14T22:11:36.676Z,0.10
2022-10-14T22:14:08.207Z,0.60
2022-10-14T22:16:37.977Z,0.60
2022-10-14T22:19:08.500Z,0.93
2022-10-14T22:21:38.968Z,0.30
2022-10-14T22:26:42.769Z,0.30
2022-10-14T22:29:15.268Z,0.10
2022-10-14T22:31:43.972Z,0.10
2022-10-14T22:34:17.467Z,0.30
2022-10-14T22:36:46.376Z,1.00
2022-10-14T22:39:17.503Z,0.20
2022-10-14T22:41:46.035Z,0.30
2022-10-14T22:44:14.116Z,0.40
2022-10-14T22:46:42.549Z,0.10
2022-10-14T22:49:10.827Z,0.23
2022-10-14T22:51:41.371Z,0.10
2022-10-14T22:54:09.773Z,0.10
2022-10-14T22:56:38.991Z,0.00
2022-10-14T22:59:10.669Z,0.10
2022-10-14T23:01:39.657Z,0.17
2022-10-14T23:04:09.108Z,0.20
2022-10-14T23:06:37.839Z,0.10
2022-10-14T23:09:07.413Z,0.20
2022-10-14T23:11:35.823Z,0.20
2022-10-14T23:14:07.321Z,0.20
2022-10-14T23:16:36.705Z,0.07
2022-10-14T23:19:05.201Z,0.10
2022-10-14T23:21:35.673Z,0.20
2022-10-14T23:24:08.877Z,0.10
2022-10-14T23:26:37.917Z,0.30
2022-10-14T23:29:08.998Z,0.03
2022-10-14T23:31:39.249Z,0.00
2022-10-14T23:34:13.158Z,0.10
2022-10-14T23:36:42.178Z,0.00
2022-10-14T23:39:12.097Z,0.00
2022-10-14T23:41:40.888Z,0.00
2022-10-14T23:44:09.178Z,0.10
2022-10-14T23:46:37.696Z,0.10
2022-10-14T23:49:08.024Z,0.40
2022-10-14T23:51:49.884Z,0.30
2022-10-14T23:54:19.416Z,0.40
2022-10-14T23:56:47.681Z,0.20
2022-10-14T23:59:16.148Z,0.30
